Time;durP1;ratioP1;P1;durP2;ratioP2;P2;SDS_P1;SDS_P2;PMS_P1;PMS_P2;Temp;Humidity;BMP_temperature;BMP_pressure;BME280_temperature;BME280_humidity;BME280_pressure;Samples;Min_cycle;Max_cycle;Signal;HPM_P1;HPM_P2
2023/01/15 00:00:37;;;;;;;2.17;1.00;;;17.90;58.40;;;;;;5113518;28;20244;-62
2023/01/15 00:03:02;;;;;;;1.40;0.90;;;17.80;58.20;;;;;;5112486;28;20303;-62
2023/01/15 00:05:28;;;;;;;1.63;1.08;;;17.80;58.00;;;;;;5113592;28;20313;-61
2023/01/15 00:07:54;;;;;;;4.35;1.10;;;17.70;58.00;;;;;;5113232;28;20589;-61
2023/01/15 00:10:19;;;;;;;2.08;1.00;;;17.80;57.80;;;;;;5112710;28;20208;-61
2023/01/15 00:12:45;;;;;;;3.33;1.13;;;17.70;57.90;;;;;;5113255;28;20180;-61
2023/01/15 00:15:10;;;;;;;2.70;1.05;;;17.70;57.80;;;;;;5113291;28;20196;-61
2023/01/15 00:17:36;;;;;;;1.38;0.85;;;17.70;57.70;;;;;;5112456;28;20570;-62
2023/01/15 00:20:02;;;;;;;2.63;1.00;;;17.70;57.80;;;;;;5113225;28;20643;-62
2023/01/15 00:22:27;;;;;;;1.83;1.05;;;17.70;57.70;;;;;;5112569;28;20173;-62
2023/01/15 00:27:37;;;;;;;2.90;1.23;;;17.60;57.90;;;;;;5113166;28;20172;-61
2023/01/15 00:30:03;;;;;;;1.23;0.85;;;17.70;57.60;;;;;;5112682;28;20180;-61
2023/01/15 00:32:29;;;;;;;1.33;0.95;;;17.70;57.60;;;;;;5113293;28;20172;-62
2023/01/15 00:34:55;;;;;;;2.63;0.95;;;17.60;57.80;;;;;;5113122;28;20536;-62
2023/01/15 00:37:20;;;;;;;2.80;1.55;;;17.60;57.60;;;;;;5112337;28;20671;-62
2023/01/15 00:39:46;;;;;;;3.17;1.08;;;17.60;57.60;;;;;;5112626;28;20175;-62
2023/01/15 00:42:11;;;;;;;2.53;0.98;;;17.60;57.60;;;;;;5113162;28;20268;-62
2023/01/15 00:44:37;;;;;;;1.73;1.10;;;17.60;57.60;;;;;;5112215;28;20196;-62
2023/01/15 00:47:03;;;;;;;1.65;0.93;;;17.60;57.40;;;;;;5113109;28;20204;-62
2023/01/15 00:49:28;;;;;;;1.85;1.02;;;17.60;57.60;;;;;;5113071;28;20176;-61
2023/01/15 00:51:54;;;;;;;1.98;0.70;;;17.50;57.60;;;;;;5112027;28;20205;-61
2023/01/15 00:54:19;;;;;;;2.63;1.00;;;17.50;57.40;;;;;;5113183;28;20192;-62
2023/01/15 00:56:45;;;;;;;2.83;1.20;;;17.50;57.40;;;;;;5112843;28;20219;-62
2023/01/15 00:59:10;;;;;;;2.58;0.90;;;17.50;57.50;;;;;;5112478;28;20192;-62
2023/01/15 01:01:36;;;;;;;3.10;1.15;;;17.50;57.40;;;;;;5112635;28;20196;-62
2023/01/15 01:04:01;;;;;;;1.98;1.00;;;17.50;57.40;;;;;;5112976;28;20169;-62
2023/01/15 01:06:27;;;;;;;2.13;0.90;;;17.50;57.30;;;;;;5112050;28;20173;-61
2023/01/15 01:08:52;;;;;;;1.42;0.80;;;17.50;57.20;;;;;;5112582;28;20222;-61
2023/01/15 01:11:20;;;;;;;1.80;1.05;;;17.50;57.30;;;;;;5112814;28;20169;-61
2023/01/15 01:13:45;;;;;;;3.53;1.58;;;17.50;57.30;;;;;;5111863;28;20173;-62
2023/01/15 01:16:29;;;;;;;1.73;1.10;;;17.50;57.30;;;;;;5116427;28;20278;-62
2023/01/15 01:18:55;;;;;;;3.55;1.35;;;17.40;57.10;;;;;;5115625;28;20627;-60
2023/01/15 01:21:21;;;;;;;2.22;0.98;;;17.40;57.10;;;;;;5116908;28;20184;-61
2023/01/15 01:23:46;;;;;;;3.00;1.10;;;17.40;57.20;;;;;;5116452;28;20206;-61
2023/01/15 01:26:12;;;;;;;2.13;0.90;;;17.40;57.00;;;;;;5116061;28;20172;-60
2023/01/15 01:28:39;;;;;;;2.10;1.00;;;17.40;56.90;;;;;;5116111;28;20173;-60
2023/01/15 01:31:05;;;;;;;3.45;1.00;;;17.40;57.10;;;;;;5116545;28;20177;-61
2023/01/15 01:33:31;;;;;;;3.47;1.50;;;17.40;57.10;;;;;;5115375;28;20252;-61
2023/01/15 01:35:56;;;;;;;3.22;1.08;;;17.40;56.90;;;;;;5116393;28;20346;-62
2023/01/15 01:38:22;;;;;;;3.53;1.05;;;17.40;56.90;;;;;;5116435;28;20268;-62
2023/01/15 01:40:47;;;;;;;2.60;0.90;;;17.40;56.90;;;;;;5115428;28;20174;-62
2023/01/15 01:43:21;;;;;;;3.53;1.58;;;17.30;56.90;;;;;;5116480;28;20177;-62
2023/01/15 01:45:46;;;;;;;2.88;1.30;;;17.30;56.90;;;;;;5116047;28;20209;-61
2023/01/15 01:48:12;;;;;;;3.33;1.08;;;17.30;56.80;;;;;;5115524;28;20206;-61
2023/01/15 01:50:37;;;;;;;2.13;1.17;;;17.30;56.70;;;;;;5116142;28;20582;-61
2023/01/15 01:53:06;;;;;;;1.52;1.00;;;17.30;56.70;;;;;;5116288;28;20172;-61
2023/01/15 01:55:33;;;;;;;2.47;1.10;;;17.30;56.70;;;;;;5096735;28;20539;-61
2023/01/15 01:57:59;;;;;;;2.30;0.90;;;17.30;56.70;;;;;;5097954;28;20165;-61
2023/01/15 02:00:25;;;;;;;2.45;1.13;;;17.30;56.70;;;;;;5115921;28;20186;-62
2023/01/15 02:02:51;;;;;;;1.80;0.60;;;17.30;56.60;;;;;;5096422;28;20203;-62
2023/01/15 02:05:32;;;;;;;3.10;1.10;;;17.30;56.50;;;;;;5097747;28;20173;-62
2023/01/15 02:07:58;;;;;;;2.33;0.93;;;17.30;56.60;;;;;;5115062;28;20173;-61
2023/01/15 02:10:24;;;;;;;3.47;1.35;;;17.30;56.80;;;;;;5115898;28;20169;-61
2023/01/15 02:13:12;;;;;;;2.78;1.17;;;17.30;56.70;;;;;;5097063;28;20173;-62
2023/01/15 02:15:42;;;;;;;1.83;1.00;;;17.30;56.70;;;;;;5096127;28;20225;-60
2023/01/15 02:18:36;;;;;;;4.35;1.42;;;17.20;56.60;;;;;;5081076;28;20181;-61
2023/01/15 02:21:09;;;;;;;3.30;0.98;;;17.20;56.70;;;;;;5115633;28;20565;-60
2023/01/15 02:23:56;;;;;;;3.38;1.23;;;17.20;56.70;;;;;;5114410;28;20280;-60
2023/01/15 02:26:55;;;;;;;2.13;0.93;;;17.20;56.50;;;;;;5115066;28;20172;-60
2023/01/15 02:29:29;;;;;;;2.35;1.20;;;17.20;56.60;;;;;;5114672;28;20642;-60
2023/01/15 02:31:54;;;;;;;3.95;1.13;;;17.20;56.50;;;;;;5114980;28;20623;-60
2023/01/15 02:34:25;;;;;;;1.75;0.80;;;17.20;56.50;;;;;;5097165;28;20180;-60
2023/01/15 02:36:55;;;;;;;2.25;0.95;;;17.20;56.60;;;;;;5096668;28;20252;-61
2023/01/15 02:39:21;;;;;;;3.20;0.98;;;17.20;56.50;;;;;;5097776;28;20173;-61
2023/01/15 02:41:50;;;;;;;2.72;1.27;;;17.20;56.50;;;;;;5079867;28;20251;-60
2023/01/15 02:44:16;;;;;;;2.13;0.98;;;17.20;56.50;;;;;;5114373;28;20196;-60
2023/01/15 02:46:42;;;;;;;3.58;1.30;;;17.10;56.40;;;;;;5096539;28;20703;-60
2023/01/15 02:49:08;;;;;;;2.92;1.17;;;17.10;56.30;;;;;;5115198;28;20268;-60
2023/01/15 02:51:40;;;;;;;2.28;1.05;;;17.10;56.30;;;;;;5096043;28;20179;-60
2023/01/15 02:54:07;;;;;;;3.97;0.90;;;17.10;56.30;;;;;;5114938;28;20181;-61
2023/01/15 02:56:34;;;;;;;3.03;1.10;;;17.10;56.30;;;;;;5096711;28;20215;-62
2023/01/15 02:59:03;;;;;;;3.10;1.33;;;17.10;56.30;;;;;;5096153;28;20714;-61
2023/01/15 03:01:32;;;;;;;4.18;1.13;;;17.10;56.30;;;;;;5080248;28;20612;-61
2023/01/15 03:04:03;;;;;;;3.42;1.38;;;17.10;56.30;;;;;;5080073;28;20173;-61
2023/01/15 03:06:52;;;;;;;2.05;1.20;;;17.10;56.30;;;;;;5095847;28;20226;-61
2023/01/15 03:09:17;;;;;;;3.55;1.38;;;17.10;56.30;;;;;;5096267;28;20624;-60
2023/01/15 03:12:05;;;;;;;3.15;1.20;;;17.10;56.30;;;;;;5113447;28;20173;-61
2023/01/15 03:14:42;;;;;;;4.63;1.33;;;17.00;56.20;;;;;;5114492;28;20181;-62
2023/01/15 03:17:22;;;;;;;3.22;1.10;;;17.10;56.40;;;;;;5096051;28;20233;-62
2023/01/15 03:19:54;;;;;;;3.75;1.38;;;17.00;56.20;;;;;;5095116;28;20207;-61
2023/01/15 03:22:28;;;;;;;1.30;0.77;;;17.00;56.20;;;;;;5096748;28;20173;-61
2023/01/15 03:24:56;;;;;;;3.80;1.27;;;17.00;56.30;;;;;;5114097;28;20180;-61
2023/01/15 03:27:22;;;;;;;3.33;1.10;;;17.00;56.10;;;;;;5095458;28;20286;-61
2023/01/15 03:29:51;;;;;;;3.85;1.13;;;17.00;56.10;;;;;;5113873;28;20263;-61
2023/01/15 03:32:17;;;;;;;2.38;1.00;;;17.00;56.20;;;;;;5078802;28;20173;-61
2023/01/15 03:34:45;;;;;;;3.13;1.17;;;17.00;56.10;;;;;;5095490;28;20187;-61
2023/01/15 03:37:10;;;;;;;3.15;1.55;;;17.00;56.20;;;;;;5113341;28;20299;-61
2023/01/15 03:39:36;;;;;;;2.88;0.98;;;17.00;56.10;;;;;;5094852;28;20205;-61
2023/01/15 03:42:15;;;;;;;3.25;1.00;;;17.00;56.10;;;;;;5113991;28;20230;-62
2023/01/15 03:44:52;;;;;;;3.70;1.23;;;17.00;56.10;;;;;;5113558;28;20173;-62
2023/01/15 03:47:49;;;;;;;2.28;1.10;;;17.00;56.20;;;;;;5096233;28;20196;-62
2023/01/15 03:50:23;;;;;;;2.83;1.20;;;17.00;56.20;;;;;;5113765;28;20188;-61
2023/01/15 03:53:15;;;;;;;4.15;1.15;;;16.90;56.10;;;;;;5095202;28;20623;-61
2023/01/15 03:55:53;;;;;;;1.85;0.98;;;16.90;56.00;;;;;;5097274;28;20544;-61
2023/01/15 03:58:24;;;;;;;1.85;0.93;;;16.90;56.00;;;;;;5113592;28;20588;-61
2023/01/15 04:00:51;;;;;;;3.58;1.10;;;16.90;56.00;;;;;;5094738;28;20169;-61
2023/01/15 04:03:17;;;;;;;3.15;1.17;;;16.90;56.60;;;;;;5079085;28;20712;-61
2023/01/15 04:05:42;;;;;;;1.90;1.10;;;16.90;56.00;;;;;;5078357;28;20683;-62
2023/01/15 04:08:08;;;;;;;4.60;1.40;;;16.90;55.90;;;;;;5094794;28;20181;-61
2023/01/15 04:10:34;;;;;;;3.95;1.25;;;16.90;55.90;;;;;;5078430;28;20180;-61
2023/01/15 04:12:59;;;;;;;3.50;1.40;;;16.90;56.50;;;;;;5113388;28;20542;-62
2023/01/15 04:15:25;;;;;;;2.92;1.05;;;16.90;56.00;;;;;;5112712;28;20718;-61
2023/01/15 04:17:50;;;;;;;3.15;1.25;;;16.80;55.80;;;;;;5113150;28;20643;-62
2023/01/15 04:20:16;;;;;;;3.22;1.27;;;16.80;55.90;;;;;;5113362;28;20169;-62
2023/01/15 04:22:41;;;;;;;3.30;1.27;;;16.80;55.80;;;;;;5112656;28;20169;-62
2023/01/15 04:25:07;;;;;;;2.42;1.10;;;16.80;55.80;;;;;;5113329;28;20681;-61
2023/01/15 04:27:33;;;;;;;2.63;1.00;;;16.80;55.80;;;;;;5113037;28;20199;-61
2023/01/15 04:29:58;;;;;;;1.83;0.95;;;16.80;55.80;;;;;;5112684;28;20259;-61
2023/01/15 04:32:24;;;;;;;3.95;1.63;;;16.80;55.80;;;;;;5113268;28;20244;-61
2023/01/15 04:34:49;;;;;;;2.90;0.88;;;16.80;55.80;;;;;;5112939;28;20603;-62
2023/01/15 04:37:15;;;;;;;3.47;1.40;;;16.80;55.70;;;;;;5112655;28;20618;-62
2023/01/15 04:39:41;;;;;;;1.67;0.88;;;16.80;55.70;;;;;;5113081;28;20219;-62
2023/01/15 04:44:55;;;;;;;2.47;0.93;;;16.80;55.70;;;;;;5097328;28;20172;-61
2023/01/15 04:47:21;;;;;;;1.98;1.10;;;16.80;55.70;;;;;;5112999;28;20177;-61
2023/01/15 04:49:46;;;;;;;3.00;1.58;;;16.80;55.70;;;;;;5115659;28;20165;-61
2023/01/15 04:52:12;;;;;;;1.95;0.75;;;16.80;55.50;;;;;;5117281;28;20177;-61
2023/01/15 04:54:38;;;;;;;2.17;0.73;;;16.70;55.60;;;;;;5117066;28;20639;-61
2023/01/15 04:57:03;;;;;;;4.57;1.17;;;16.70;55.60;;;;;;5116456;28;20610;-61
2023/01/15 04:59:29;;;;;;;2.40;0.90;;;16.70;55.60;;;;;;5117048;28;20505;-61
2023/01/15 05:01:54;;;;;;;3.72;1.35;;;16.70;55.60;;;;;;5116663;28;20204;-61
2023/01/15 05:04:20;;;;;;;2.80;1.10;;;16.70;55.60;;;;;;5116528;28;20177;-61
2023/01/15 05:06:46;;;;;;;3.42;1.20;;;16.70;55.50;;;;;;5116852;28;20211;-62
2023/01/15 05:09:11;;;;;;;4.50;1.33;;;16.70;55.50;;;;;;5117226;28;20169;-61
2023/01/15 05:11:37;;;;;;;3.75;1.17;;;16.70;55.50;;;;;;5115917;28;20264;-61
2023/01/15 05:14:03;;;;;;;2.50;1.00;;;16.70;55.50;;;;;;5117160;28;20200;-62
2023/01/15 05:16:30;;;;;;;4.75;1.65;;;16.70;55.50;;;;;;5116624;28;20690;-61
2023/01/15 05:19:00;;;;;;;2.08;1.20;;;16.70;55.40;;;;;;5115961;28;20177;-62
2023/01/15 05:21:30;;;;;;;2.58;1.00;;;16.70;55.40;;;;;;5116848;28;20201;-62
2023/01/15 05:23:56;;;;;;;3.42;1.30;;;16.70;55.40;;;;;;5116582;28;20251;-61
2023/01/15 05:26:21;;;;;;;2.08;1.10;;;16.60;55.30;;;;;;5116023;28;20196;-61
2023/01/15 05:28:47;;;;;;;3.97;1.52;;;16.60;55.40;;;;;;5116162;28;20191;-61
2023/01/15 05:31:16;;;;;;;4.22;1.35;;;16.60;55.30;;;;;;5116453;28;20185;-61
2023/01/15 05:33:42;;;;;;;3.28;1.13;;;16.60;55.30;;;;;;5115646;28;20181;-62
2023/01/15 05:36:09;;;;;;;2.30;0.88;;;16.60;55.10;;;;;;5116461;28;20204;-62
2023/01/15 05:38:35;;;;;;;2.30;1.08;;;16.60;55.30;;;;;;5116170;28;20226;-62
2023/01/15 05:43:53;;;;;;;3.78;1.67;;;16.60;55.20;;;;;;5100595;28;20211;-62
2023/01/15 05:46:18;;;;;;;1.35;0.90;;;16.50;55.10;;;;;;5115439;28;20177;-62
2023/01/15 05:48:44;;;;;;;4.05;1.10;;;16.60;55.80;;;;;;5115928;28;20218;-61
2023/01/15 05:51:09;;;;;;;5.40;1.40;;;16.60;55.10;;;;;;5116232;28;20226;-61
2023/01/15 05:53:35;;;;;;;3.08;1.20;;;16.60;55.10;;;;;;5115115;28;20169;-61
2023/01/15 05:56:01;;;;;;;2.50;1.15;;;16.60;55.20;;;;;;5115902;28;20250;-61
2023/01/15 05:58:26;;;;;;;2.97;1.70;;;16.50;55.20;;;;;;5116196;28;20518;-62
2023/01/15 06:00:53;;;;;;;2.92;1.15;;;16.50;55.10;;;;;;5114177;28;20180;-61
2023/01/15 06:03:20;;;;;;;3.58;1.67;;;16.50;55.10;;;;;;5115842;28;20173;-61
2023/01/15 06:05:52;;;;;;;3.95;1.08;;;16.50;55.00;;;;;;5115596;28;20185;-61
2023/01/15 06:08:18;;;;;;;3.10;1.27;;;16.50;55.10;;;;;;5115027;28;20180;-61
2023/01/15 06:10:44;;;;;;;3.78;1.20;;;16.50;55.10;;;;;;5115416;28;20181;-61
2023/01/15 06:13:10;;;;;;;3.95;1.23;;;16.50;55.00;;;;;;5115677;28;20551;-62
2023/01/15 06:15:35;;;;;;;3.58;1.17;;;16.50;55.10;;;;;;5114552;28;20220;-61
2023/01/15 06:18:01;;;;;;;4.07;1.50;;;16.50;55.00;;;;;;5115607;28;20197;-62
2023/01/15 06:20:26;;;;;;;2.28;1.10;;;16.50;55.00;;;;;;5115735;28;20191;-62
2023/01/15 06:22:52;;;;;;;3.58;1.27;;;16.50;55.00;;;;;;5114487;28;20649;-61
2023/01/15 06:25:17;;;;;;;2.85;0.98;;;16.50;55.00;;;;;;5115406;28;20165;-61
2023/01/15 06:27:43;;;;;;;2.85;1.30;;;16.50;55.00;;;;;;5115078;28;20260;-61
2023/01/15 06:30:10;;;;;;;3.13;1.08;;;16.50;55.00;;;;;;5114857;28;20283;-61
2023/01/15 06:32:36;;;;;;;4.15;1.50;;;16.50;55.00;;;;;;5115012;28;20544;-61
2023/01/15 06:35:01;;;;;;;3.85;1.55;;;16.40;54.90;;;;;;5115353;28;20173;-62
2023/01/15 06:37:27;;;;;;;2.97;1.13;;;16.40;55.00;;;;;;5114326;28;20738;-62
2023/01/15 06:39:52;;;;;;;3.88;1.70;;;16.40;55.00;;;;;;5114874;28;20670;-62
2023/01/15 06:47:46;;;;;;;3.50;1.55;;;16.40;54.80;;;;;;5114792;28;20278;-61
2023/01/15 06:50:12;;;;;;;2.55;1.17;;;16.40;54.80;;;;;;5114214;28;20293;-61
2023/01/15 06:52:37;;;;;;;2.67;1.23;;;16.40;54.70;;;;;;5114806;28;20180;-61
2023/01/15 06:55:03;;;;;;;2.78;1.02;;;16.40;54.70;;;;;;5114785;28;20177;-61
2023/01/15 06:57:29;;;;;;;1.52;0.95;;;16.40;54.70;;;;;;5113969;28;20212;-61
2023/01/15 06:59:54;;;;;;;4.63;1.60;;;16.40;54.70;;;;;;5114558;28;20165;-61
2023/01/15 07:02:20;;;;;;;2.95;1.30;;;16.40;54.90;;;;;;5114575;28;20641;-61
2023/01/15 07:04:46;;;;;;;3.38;1.30;;;16.40;54.80;;;;;;5113638;28;20173;-61
2023/01/15 07:07:15;;;;;;;3.53;1.17;;;16.40;54.80;;;;;;5114913;28;20181;-61
2023/01/15 07:09:41;;;;;;;2.35;1.33;;;16.50;54.80;;;;;;5114255;28;20639;-61
2023/01/15 07:12:06;;;;;;;2.40;1.25;;;16.50;54.70;;;;;;5113894;28;20177;-61
2023/01/15 07:14:32;;;;;;;3.45;1.15;;;16.50;54.70;;;;;;5114359;28;20173;-61
2023/01/15 07:16:58;;;;;;;3.47;1.10;;;16.50;54.60;;;;;;5114326;28;20273;-62
2023/01/15 07:19:23;;;;;;;3.13;1.20;;;16.50;54.40;;;;;;5113624;28;20673;-62
2023/01/15 07:21:49;;;;;;;2.10;1.00;;;16.50;54.50;;;;;;5113970;28;20663;-61
2023/01/15 07:24:15;;;;;;;2.72;1.00;;;16.50;54.50;;;;;;5114435;28;20200;-61
2023/01/15 07:26:41;;;;;;;3.45;1.13;;;16.50;54.60;;;;;;5113155;28;20542;-61
2023/01/15 07:29:06;;;;;;;3.97;1.60;;;16.50;54.50;;;;;;5114157;28;20177;-61
2023/01/15 07:31:32;;;;;;;2.08;1.10;;;16.50;54.60;;;;;;5113353;28;20180;-61
2023/01/15 07:33:57;;;;;;;2.25;1.38;;;16.50;54.60;;;;;;5114264;28;20552;-61
2023/01/15 07:36:23;;;;;;;2.22;1.23;;;16.50;54.50;;;;;;5113985;28;20602;-62
2023/01/15 07:38:49;;;;;;;4.65;1.40;;;16.50;54.60;;;;;;5113169;28;20658;-62
2023/01/15 07:49:45;;;;;;;2.35;1.55;;;16.60;54.60;;;;;;5113961;28;20272;-61
2023/01/15 07:52:20;;;;;;;3.42;1.13;;;16.60;54.50;;;;;;5113802;28;20580;-61
2023/01/15 07:54:47;;;;;;;3.45;1.33;;;16.50;54.30;;;;;;5112690;28;20650;-61
2023/01/15 07:57:17;;;;;;;2.28;1.05;;;16.50;54.40;;;;;;5113852;28;20229;-61
2023/01/15 07:59:43;;;;;;;3.97;1.23;;;16.50;54.40;;;;;;5094958;28;20169;-62
2023/01/15 08:02:08;;;;;;;2.38;1.00;;;16.50;54.30;;;;;;5113701;28;20203;-61
2023/01/15 08:04:34;;;;;;;3.45;1.10;;;16.50;54.50;;;;;;5113207;28;20170;-61
2023/01/15 08:07:00;;;;;;;3.47;1.35;;;16.50;54.50;;;;;;5112878;28;20177;-61
2023/01/15 08:09:26;;;;;;;3.10;1.00;;;16.50;54.30;;;;;;5113281;28;20189;-60
2023/01/15 08:17:19;;;;;;;2.70;1.40;;;16.50;54.30;;;;;;5113413;28;20220;-61
2023/01/15 08:19:45;;;;;;;3.08;1.42;;;16.50;54.20;;;;;;5112994;28;20169;-62
2023/01/15 08:22:11;;;;;;;2.25;1.27;;;16.50;54.20;;;;;;5112917;28;20173;-61
2023/01/15 08:24:36;;;;;;;3.30;1.13;;;16.50;54.30;;;;;;5112686;28;20264;-61
2023/01/15 08:27:02;;;;;;;2.80;0.98;;;16.50;54.10;;;;;;5113515;28;20208;-60
2023/01/15 08:29:28;;;;;;;1.85;1.02;;;16.50;54.20;;;;;;5112725;28;20214;-60
2023/01/15 08:31:53;;;;;;;2.72;1.13;;;16.50;54.20;;;;;;5112869;28;20197;-65
2023/01/15 08:34:19;;;;;;;2.30;1.30;;;16.50;54.40;;;;;;5113124;28;20609;-65
2023/01/15 08:36:44;;;;;;;2.88;1.33;;;16.50;54.50;;;;;;5112367;28;20722;-71
2023/01/15 08:39:10;;;;;;;3.35;1.20;;;16.50;54.50;;;;;;5113541;28;20218;-64
2023/01/15 08:41:36;;;;;;;3.85;1.23;;;16.60;54.30;;;;;;5113071;28;20169;-62
2023/01/15 08:44:01;;;;;;;3.83;1.33;;;16.60;54.70;;;;;;5112626;28;20197;-73
2023/01/15 08:46:27;;;;;;;2.90;0.90;;;16.60;54.90;;;;;;5113126;28;20169;-72
2023/01/15 08:48:52;;;;;;;3.38;1.35;;;16.60;54.40;;;;;;5112135;28;20185;-72
2023/01/15 08:51:18;;;;;;;2.45;1.10;;;16.60;54.10;;;;;;5113425;28;20173;-75
2023/01/15 08:53:44;;;;;;;1.33;0.98;;;16.70;54.10;;;;;;5112940;28;20177;-74
2023/01/15 08:56:16;;;;;;;3.30;1.30;;;16.70;54.30;;;;;;5112256;28;20208;-75
2023/01/15 08:58:42;;;;;;;3.17;1.08;;;16.80;54.10;;;;;;5112759;28;20308;-73
2023/01/15 09:01:08;;;;;;;4.32;1.27;;;16.90;54.00;;;;;;5113049;28;20624;-72
2023/01/15 09:03:34;;;;;;;6.20;1.55;;;17.00;53.80;;;;;;5111887;28;20217;-72
2023/01/15 09:06:00;;;;;;;2.63;1.33;;;17.00;53.80;;;;;;5113134;28;20539;-64
2023/01/15 09:08:26;;;;;;;2.58;1.05;;;17.10;54.10;;;;;;5113109;28;20169;-64
2023/01/15 09:10:59;;;;;;;1.77;1.10;;;17.10;54.10;;;;;;5111980;28;20177;-67
2023/01/15 09:13:25;;;;;;;2.92;1.05;;;17.10;54.10;;;;;;5112829;28;20177;-69
2023/01/15 09:15:51;;;;;;;2.75;1.05;;;17.20;54.10;;;;;;5112309;28;20225;-70
2023/01/15 09:18:19;;;;;;;3.75;1.40;;;17.20;54.10;;;;;;5112282;28;20540;-70
2023/01/15 09:20:45;;;;;;;2.70;1.50;;;17.20;54.10;;;;;;5113043;28;20177;-64
2023/01/15 09:23:11;;;;;;;4.28;1.13;;;17.20;54.50;;;;;;5112870;28;20177;-64
2023/01/15 09:25:36;;;;;;;2.63;1.05;;;17.30;54.60;;;;;;5111799;28;20207;-64
2023/01/15 09:28:02;;;;;;;2.47;0.95;;;17.30;54.50;;;;;;5112713;28;20169;-64
2023/01/15 09:30:28;;;;;;;2.40;1.13;;;17.40;54.50;;;;;;5112599;28;20165;-64
2023/01/15 09:32:54;;;;;;;2.75;1.17;;;17.40;54.50;;;;;;5111929;28;20185;-64
2023/01/15 09:35:21;;;;;;;3.22;1.20;;;17.40;54.40;;;;;;5113673;28;20176;-65
2023/01/15 09:37:50;;;;;;;3.08;1.23;;;17.40;54.40;;;;;;5115940;28;20578;-65
2023/01/15 09:40:44;;;;;;;2.47;1.20;;;17.40;54.30;;;;;;5115606;28;20582;-64
2023/01/15 09:43:22;;;;;;;4.75;1.23;;;17.40;54.40;;;;;;5116310;28;20180;-64
2023/01/15 09:45:53;;;;;;;2.17;0.93;;;17.40;54.50;;;;;;5097159;28;20219;-63
2023/01/15 09:48:52;;;;;;;2.42;1.10;;;17.40;54.50;;;;;;5098641;28;20173;-65
2023/01/15 09:51:28;;;;;;;1.63;0.90;;;17.40;54.40;;;;;;5069286;28;20212;-65
2023/01/15 09:54:31;;;;;;;3.53;1.23;;;17.40;54.50;;;;;;5115139;28;20169;-65
2023/01/15 09:56:56;;;;;;;4.53;1.60;;;17.30;54.50;;;;;;5115974;28;20200;-65
2023/01/15 09:59:33;;;;;;;3.20;1.50;;;17.30;54.30;;;;;;5097260;28;20514;-66
2023/01/15 10:01:59;;;;;;;4.22;1.20;;;17.20;54.20;;;;;;5116070;28;20177;-66
2023/01/15 10:04:39;;;;;;;1.10;0.95;;;17.30;54.30;;;;;;5097767;28;20226;-64
2023/01/15 10:07:09;;;;;;;5.57;1.17;;;17.30;54.30;;;;;;5098452;28;20173;-64
2023/01/15 10:09:37;;;;;;;4.13;1.52;;;17.20;54.30;;;;;;5097695;28;20222;-64
2023/01/15 10:12:35;;;;;;;4.30;1.42;;;17.20;54.40;;;;;;5097653;28;20169;-68
2023/01/15 10:15:09;;;;;;;2.70;1.17;;;17.20;54.40;;;;;;5098988;28;20573;-67
2023/01/15 10:17:41;;;;;;;4.22;1.48;;;17.20;54.90;;;;;;5115336;28;20219;-67
2023/01/15 10:20:27;;;;;;;3.50;1.08;;;17.20;54.10;;;;;;5115423;28;20175;-67
2023/01/15 10:23:06;;;;;;;2.67;1.13;;;17.30;53.90;;;;;;5081908;28;20221;-67
2023/01/15 10:25:46;;;;;;;3.33;1.15;;;17.30;53.90;;;;;;5098111;28;20176;-68
2023/01/15 10:28:22;;;;;;;4.90;1.10;;;17.30;53.90;;;;;;5098624;28;20177;-70
2023/01/15 10:30:53;;;;;;;3.60;1.48;;;17.40;53.90;;;;;;5098001;28;20188;-68
2023/01/15 10:33:55;;;;;;;6.30;1.20;;;17.60;53.60;;;;;;5115556;28;20184;-68
2023/01/15 10:36:42;;;;;;;4.68;1.40;;;17.70;53.30;;;;;;5096538;28;20256;-70
2023/01/15 10:39:36;;;;;;;5.38;1.38;;;17.90;53.10;;;;;;5097202;28;20173;-67
2023/01/15 10:42:39;;;;;;;2.75;1.02;;;18.10;52.90;;;;;;5082576;28;20222;-67
2023/01/15 10:45:23;;;;;;;6.50;1.45;;;18.30;52.60;;;;;;5114993;28;20169;-66
2023/01/15 10:47:52;;;;;;;1.90;0.90;;;18.40;52.30;;;;;;5096157;28;20188;-70
2023/01/15 10:50:24;;;;;;;1.77;1.10;;;18.50;52.20;;;;;;5079739;28;20218;-70
2023/01/15 10:53:01;;;;;;;4.85;1.48;;;18.50;52.10;;;;;;5114828;28;20173;-72
2023/01/15 10:55:35;;;;;;;3.53;1.02;;;18.60;52.00;;;;;;5097718;28;20181;-71
2023/01/15 10:58:13;;;;;;;3.67;0.98;;;18.60;51.90;;;;;;5097778;28;20231;-70
2023/01/15 11:00:39;;;;;;;5.53;1.50;;;18.60;51.90;;;;;;5096587;28;20180;-70
2023/01/15 11:03:13;;;;;;;3.47;1.27;;;18.70;51.90;;;;;;5096103;28;20180;-70
2023/01/15 11:05:39;;;;;;;2.95;1.02;;;18.70;51.70;;;;;;5080981;28;20172;-68
2023/01/15 11:08:06;;;;;;;4.18;1.17;;;18.70;51.70;;;;;;5096431;28;20195;-69
2023/01/15 11:10:32;;;;;;;3.80;1.10;;;18.70;51.70;;;;;;5095684;28;20180;-70
2023/01/15 11:21:26;;;;;;;4.28;1.05;;;18.70;51.40;;;;;;5114464;28;20180;-70
2023/01/15 11:23:52;;;;;;;2.53;1.13;;;18.80;51.30;;;;;;5113592;28;20177;-67
2023/01/15 11:26:23;;;;;;;3.70;0.98;;;18.80;51.20;;;;;;5096130;28;20690;-66
2023/01/15 11:28:49;;;;;;;3.53;1.20;;;18.80;51.20;;;;;;5078984;28;20165;-66
2023/01/15 11:31:15;;;;;;;4.18;1.10;;;18.80;51.10;;;;;;5113601;28;20177;-65
2023/01/15 11:34:00;;;;;;;2.95;1.20;;;18.70;51.20;;;;;;5113793;28;20198;-66
2023/01/15 11:36:27;;;;;;;2.75;1.20;;;18.60;51.30;;;;;;5113954;28;20277;-67
2023/01/15 11:38:52;;;;;;;3.08;0.88;;;18.60;51.00;;;;;;5112509;28;20830;-68
2023/01/15 11:50:42;;;;;;;2.33;1.08;;;18.60;51.10;;;;;;5113368;28;20657;-67
2023/01/15 11:52:23;;;;;;;5.20;1.02;;;18.60;51.10;;;;;;5113143;28;20579;-64
2023/01/15 11:54:50;;;;;;;1.90;1.00;;;18.50;51.30;;;;;;5095282;28;20173;-63
2023/01/15 11:57:30;;;;;;;4.63;1.00;;;18.50;51.50;;;;;;5113638;28;20231;-65
2023/01/15 11:59:56;;;;;;;5.28;1.13;;;18.50;51.40;;;;;;5112607;28;20251;-64
2023/01/15 12:02:29;;;;;;;4.15;1.30;;;18.50;51.50;;;;;;5078961;28;20177;-64
2023/01/15 12:04:57;;;;;;;3.70;1.20;;;18.40;51.40;;;;;;5095293;28;20173;-63
2023/01/15 12:07:24;;;;;;;3.38;0.77;;;18.40;51.40;;;;;;5078094;28;20177;-67
2023/01/15 12:10:05;;;;;;;4.22;1.67;;;18.30;51.50;;;;;;5095669;28;20609;-67
2023/01/15 12:13:05;;;;;;;4.32;1.10;;;18.30;51.60;;;;;;5095385;28;20178;-66
2023/01/15 12:15:35;;;;;;;3.22;1.30;;;18.30;51.80;;;;;;5113465;28;20225;-65
2023/01/15 12:18:28;;;;;;;4.78;1.40;;;18.30;51.90;;;;;;5079036;28;20296;-65
2023/01/15 12:21:23;;;;;;;2.47;1.30;;;18.30;52.00;;;;;;5111857;28;20197;-61
2023/01/15 12:24:13;;;;;;;4.13;1.40;;;18.30;51.90;;;;;;5097502;28;20773;-67
2023/01/15 12:26:41;;;;;;;3.85;1.45;;;18.30;52.00;;;;;;5112935;28;20177;-66
2023/01/15 12:29:26;;;;;;;2.47;1.30;;;18.40;52.10;;;;;;5094658;28;20169;-67
2023/01/15 12:31:59;;;;;;;4.45;1.17;;;18.40;52.60;;;;;;5095699;28;20249;-68
2023/01/15 12:34:27;;;;;;;3.58;1.10;;;18.40;52.00;;;;;;5095280;28;20184;-68
2023/01/15 12:37:11;;;;;;;3.00;1.13;;;18.50;52.10;;;;;;5078252;28;20305;-69
2023/01/15 12:39:46;;;;;;;4.00;0.93;;;18.40;51.90;;;;;;5094887;28;20177;-67
2023/01/15 12:45:06;;;;;;;3.00;1.15;;;18.30;52.00;;;;;;5113292;28;20214;-67
2023/01/15 12:47:43;;;;;;;2.10;0.68;;;18.30;52.20;;;;;;5095695;28;20722;-68
2023/01/15 12:50:27;;;;;;;2.28;1.25;;;18.30;52.30;;;;;;5094358;28;20199;-67
2023/01/15 12:53:10;;;;;;;2.67;1.13;;;18.20;52.20;;;;;;5094604;28;20181;-68
2023/01/15 12:55:39;;;;;;;3.50;1.35;;;18.30;52.20;;;;;;5111969;28;20177;-68
2023/01/15 12:58:31;;;;;;;2.55;1.30;;;18.30;52.20;;;;;;5094863;28;20683;-67
2023/01/15 13:01:27;;;;;;;2.97;1.20;;;18.30;52.20;;;;;;5089983;28;20201;-67
2023/01/15 13:04:21;;;;;;;1.77;1.00;;;18.30;52.10;;;;;;5112226;28;20185;-68
2023/01/15 13:06:50;;;;;;;2.22;1.00;;;18.20;52.10;;;;;;5112700;28;20180;-65
2023/01/15 13:09:24;;;;;;;1.40;0.80;;;18.20;52.10;;;;;;5095280;28;20184;-67
2023/01/15 13:11:50;;;;;;;1.50;0.80;;;18.20;52.10;;;;;;5082335;28;20173;-68
2023/01/15 13:14:16;;;;;;;2.15;1.17;;;18.10;52.20;;;;;;5098954;28;20177;-68
2023/01/15 13:17:00;;;;;;;2.47;1.00;;;18.10;52.30;;;;;;5097221;28;20605;-69
2023/01/15 13:19:57;;;;;;;4.70;0.90;;;18.20;52.30;;;;;;5116828;28;20181;-70
2023/01/15 13:22:25;;;;;;;2.00;1.05;;;18.30;52.30;;;;;;5116005;28;20177;-69
2023/01/15 13:25:28;;;;;;;1.88;0.68;;;18.30;52.20;;;;;;5080828;28;20176;-68
2023/01/15 13:28:28;;;;;;;2.08;0.70;;;18.30;52.20;;;;;;5116199;28;20212;-68
2023/01/15 13:31:06;;;;;;;1.50;0.70;;;18.30;52.20;;;;;;5029318;28;20666;-67
2023/01/15 13:33:43;;;;;;;3.33;0.95;;;18.20;52.10;;;;;;5082366;28;20658;-70
2023/01/15 13:36:13;;;;;;;2.95;0.90;;;18.20;52.20;;;;;;5116370;28;20714;-68
2023/01/15 13:38:48;;;;;;;2.88;0.90;;;18.20;52.10;;;;;;5097203;28;20181;-68
2023/01/15 13:44:19;;;;;;;1.80;1.08;;;18.10;52.30;;;;;;5115649;28;20188;-67
2023/01/15 13:46:57;;;;;;;2.25;1.08;;;18.10;52.60;;;;;;5097980;28;20173;-66
2023/01/15 13:49:26;;;;;;;2.47;1.00;;;18.10;52.40;;;;;;5098330;28;20183;-66
2023/01/15 13:51:52;;;;;;;3.33;1.38;;;18.10;52.40;;;;;;5080586;28;20181;-67
2023/01/15 13:54:18;;;;;;;2.45;0.80;;;18.10;52.40;;;;;;5116216;28;20165;-68